• Join FlightAware (Why Join?)
  • Login
  • US Flag 
01:10AM EST


 

Airport Tracker/Info


-or-


 

Live Flight TrackerFlight Track Log ✈ AAY843 ✈ 24-Mar-2014 ✈ KSYR - KPIE

Flight Track Log - Related Links

Times and Time Zones

All times are in EDT time to prevent confusion due to time zone crossing. See the AAY843 flight status page for this flight to view local times or setup timezone preferences in your user account.

Time Position Orientation Groundspeed Altitude Reporting Facility
EDT Latitude Longitude Course Direction KTS MPH feet Rate Location/Type
07:16PM 42.7830 -76.4740 211° Southwest 342 394 14,100  Level FlightAware ADS-B
07:17PM 42.6568 -76.5779 210° Southwest  Level FlightAware Approximate
07:17PM 42.7450 -76.5050 211° Southwest 348 400 15,200  Level FlightAware ADS-B
07:17PM 42.6950 -76.5450 211° Southwest 353 406 16,700 2,451 Climbing FlightAware ADS-B
07:18PM 42.6380 -76.5900 211° Southwest 364 419 18,100 1,291 Climbing FlightAware ADS-B
07:19PM 42.6210 -76.6050 211° Southwest 369 425 18,400 429 Climbing FlightAware ADS-B
07:19PM 42.6110 -76.6130 211° Southwest 372 428 18,600 300 Climbing FlightAware ADS-B
07:20PM 42.6070 -76.6160 211° Southwest 372 428 18,700 1,000 Climbing FlightAware ADS-B
07:20PM 42.5550 -76.6580 211° Southwest 377 434 19,900 2,667 Climbing FlightAware ADS-B
07:21PM 42.5009 -76.7011 211° Southwest 375 432 21,100 2,164 Climbing FlightAware ADS-B (EPGD / GDN)
07:21PM 42.4550 -76.7380 211° Southwest 386 444 22,100 742 Climbing FlightAware ADS-B
07:22PM 42.4520 -76.7400 211° Southwest 387 445 22,200 -1,000 Climbing FlightAware ADS-B
07:22PM 42.5024 -76.6999 211° Southwest 376 433 21,100 2,651 Descending FlightAware ADS-B
07:23PM 42.3530 -76.8190 211° Southwest 395 455 24,100 3,973 Climbing FlightAware ADS-B
07:24PM 42.2500 -76.9010 211° Southwest 399 459 26,000 1,613 Climbing FlightAware ADS-B
07:25PM 42.1500 -76.9810 211° Southwest 412 474 27,300 1,692 Climbing FlightAware ADS-B
07:26PM 41.8585 -77.0243 194° South 440 506 29,300 488 Climbing FlightAware ADS-B (CYYZ)
07:26PM 42.0340 -77.0060 169° South 463 533 28,000 -677 Descending FlightAware ADS-B
07:27PM 41.9130 -77.0060 196° South 440 506 28,600 1,500 Climbing FlightAware ADS-B
07:27PM 41.7850 -77.0470 193° South 452 520 29,800 1,705 Climbing FlightAware ADS-B
07:28PM 41.6420 -77.0910 193° South 449 517 31,300 2,854 Climbing FlightAware ADS-B
07:29PM 41.4893 -77.1378 193° South 427 491 33,700 811 Climbing FlightAware ADS-B (KPHL)
07:29PM 41.5940 -77.1060 194° South 448 516 31,800 261 Descending FlightAware ADS-B
07:29PM 41.4440 -77.1517 194° South 440 506 33,800 167 Climbing FlightAware ADS-B (CYYZ)
07:29PM 41.5890 -77.1070 194° South 447 514 31,900 -632 Descending FlightAware ADS-B
07:30PM 41.5150 -77.1300 193° South 429 494 33,200 2,746 Climbing FlightAware ADS-B
07:30PM 41.2817 -77.2019 193° South 445 512 34,600 1,346 Climbing FlightAware ADS-B (KPHL)
07:32PM 41.1167 -77.2521 194° South 440 506 35,600 706 Climbing FlightAware ADS-B (CYYZ)
07:33PM 40.9891 -77.2908 193° South 449 517 36,400 879 Climbing FlightAware ADS-B (KPHL)
07:34PM 40.8822 -77.3230 193° South 440 506 37,300 846 Climbing FlightAware ADS-B (KPHL)
07:34PM 40.8173 -77.3426 193° South 441 507 37,500 302 Climbing FlightAware ADS-B (KPHL)
07:36PM 40.6551 -77.3914 193° South 439 505 38,000 108 Climbing FlightAware ADS-B (KPHL)
07:39PM 40.3386 -77.4855 193° South 437 503 38,000  Level FlightAware ADS-B (YXSG)
07:41PM 40.0446 -77.5725 193° South 443 510 38,000  Level FlightAware ADS-B
07:42PM 39.9171 -77.6100 193° South 444 511 38,000 58 Level FlightAware ADS-B
07:43PM 39.8474 -77.6305 193° South 443 510 38,100 81 Climbing FlightAware ADS-B (KPHL)
07:43PM 39.7776 -77.6508 193° South 440 506 38,100  Level FlightAware ADS-B
07:44PM 39.6957 -77.6745 193° South 432 497 38,100 -86 Level FlightAware ADS-B
07:44PM 39.6879 -77.6768 193° South 430 495 38,000 -60 Descending FlightAware ADS-B
07:45PM 39.4989 -77.7317 193° South 428 493 38,000  Level FlightAware ADS-B
07:47PM 39.4681 -77.7406 193° South 431 496 38,000  Level FlightAware ADS-B (YXSG)
07:48PM 39.1658 -77.8277 192° South 434 499 38,000  Level FlightAware ADS-B
07:52PM 38.7471 -77.9470 193° South 434 499 38,000  Level FlightAware ADS-B (YXSG)
07:58PM 38.0733 -78.1388 197° South 413 475 38,000  Level FlightAware ADS-B (KCHO)
07:58PM 38.0289 -78.1600 203° Southwest 401 461 38,000  Level FlightAware ADS-B (KCHO)
07:59PM 37.9697 -78.1985 211° Southwest 389 448 38,000  Level FlightAware ADS-B (KCHO)
07:59PM 37.9253 -78.2368 217° Southwest 380 437 38,000  Level FlightAware ADS-B (KCHO)
08:00PM 37.8742 -78.2861 217° Southwest 380 437 38,000  Level FlightAware ADS-B (KCHO)
08:01PM 37.8140 -78.3433 217° Southwest 379 436 38,000  Level FlightAware ADS-B (KCHO)
08:01PM 37.7639 -78.3908 217° Southwest 378 435 38,000  Level FlightAware ADS-B (KCHO)
08:02PM 37.7000 -78.4513 217° Southwest 376 433 38,000  Level FlightAware ADS-B (KCHO)
08:06PM 37.3636 -78.7684 217° Southwest 374 430 38,000  Level FlightAware ADS-B (KCHO)
08:06PM 37.3219 -78.8074 217° Southwest 374 430 38,000  Level FlightAware ADS-B (KCHO)
08:08PM 37.2117 -78.9092 217° Southwest 376 433 38,000  Level Washington Center
08:09PM 37.1283 -78.9861 216° Southwest 376 433 38,000  Level Washington Center
08:10PM 37.0444 -79.0658 217° Southwest 376 433 38,000  Level Washington Center
08:11PM 36.9608 -79.1425 216° Southwest 376 433 38,000  Level Washington Center
08:12PM 36.8839 -79.2117 216° Southwest 376 433 38,000  Level Washington Center
08:13PM 36.8000 -79.2883 216° Southwest 376 433 38,000  Level Washington Center
08:14PM 36.7142 -79.3697 217° Southwest 376 433 38,000  Level Washington Center
08:15PM 36.6344 -79.4433 217° Southwest 376 433 38,000  Level Washington Center
08:16PM 36.5419 -79.5267 216° Southwest 376 433 38,000  Level Washington Center
08:17PM 36.4581 -79.6025 216° Southwest 376 433 38,000  Level Washington Center
08:17PM 36.4114 -79.6428 215° Southwest 365 420 38,000  Level Atlanta Center
08:18PM 36.3283 -79.7169 216° Southwest 360 414 38,000  Level Atlanta Center
08:19PM 36.2456 -79.7908 216° Southwest 365 420 38,000  Level Atlanta Center
08:20PM 36.1667 -79.8644 217° Southwest 370 426 38,000  Level Atlanta Center
08:21PM 36.0836 -79.9381 216° Southwest 370 426 38,000  Level Atlanta Center
08:22PM 36.0061 -79.9908 209° Southwest 370 426 38,000  Level Atlanta Center
08:23PM 35.9078 -80.0419 203° Southwest 370 426 38,000  Level Atlanta Center
08:24PM 35.8092 -80.0928 203° Southwest 375 432 38,000  Level Atlanta Center
08:25PM 35.7125 -80.1383 201° Southwest 375 432 38,000  Level Atlanta Center
08:26PM 35.6061 -80.1972 204° Southwest 382 440 38,000  Level Atlanta Center
08:32PM 35.0847 -80.4570 202° Southwest 371 427 38,000  Level FlightAware ADS-B (KCDN)
08:33PM 34.9865 -80.5056 202° Southwest 370 426 38,000  Level FlightAware ADS-B (KCDN)
08:33PM 34.9393 -80.5288 202° Southwest 369 425 38,000  Level FlightAware ADS-B (KCDN)
08:34PM 34.8682 -80.5638 202° Southwest 368 423 38,000  Level FlightAware ADS-B (KCDN)
08:35PM 34.7956 -80.5996 202° Southwest 369 425 38,000  Level FlightAware ADS-B (KCDN)
08:36PM 34.6767 -80.6576 202° Southwest 372 428 38,000  Level FlightAware ADS-B (KCDN)
08:36PM 34.6290 -80.6808 202° Southwest 372 428 38,000  Level FlightAware ADS-B (KCDN)
08:37PM 34.5652 -80.7120 202° Southwest 372 428 38,000  Level FlightAware ADS-B (KCDN)
08:38PM 34.4916 -80.7478 202° Southwest 372 428 38,000  Level FlightAware ADS-B (KCDN)
08:38PM 34.4426 -80.7717 202° Southwest 372 428 38,000  Level FlightAware ADS-B (KCDN)
08:39PM 34.3805 -80.8020 202° Southwest 373 429 38,000  Level FlightAware ADS-B (KCDN)
08:40PM 34.3033 -80.8394 202° Southwest 376 433 38,000  Level FlightAware ADS-B (KCDN)
08:40PM 34.2491 -80.8657 202° Southwest 377 434 38,000  Level FlightAware ADS-B (KCDN)
08:41PM 34.1863 -80.8958 202° Southwest 376 433 38,000 68 Level FlightAware ADS-B (KCDN)
08:42PM 34.1073 -80.9339 202° Southwest 370 426 38,100 67 Climbing FlightAware ADS-B (KCDN)
08:43PM 34.0444 -80.9638 202° Southwest 366 421 38,100 -85 Level FlightAware ADS-B (KCDN)
08:43PM 33.9953 -80.9874 202° Southwest 361 415 38,000 -98 Descending FlightAware ADS-B (KCDN)
08:44PM 33.9483 -81.0100 202° Southwest 359 413 38,000  Level FlightAware ADS-B (KCDN)
08:44PM 33.9004 -81.0330 202° Southwest 358 412 38,000  Level FlightAware ADS-B (KCDN)
08:45PM 33.8525 -81.0560 202° Southwest 358 412 38,000  Level FlightAware ADS-B (KCDN)
08:45PM 33.7832 -81.0903 203° Southwest 359 413 38,000  Level FlightAware ADS-B (KCDN)
08:46PM 33.7137 -81.1251 203° Southwest 362 417 38,000  Level FlightAware ADS-B (KCDN)
08:47PM 33.6643 -81.1495 202° Southwest 365 420 38,000  Level FlightAware ADS-B (KCDN)
08:47PM 33.6179 -81.1724 202° Southwest 366 421 38,000 94 Level FlightAware ADS-B (KCDN)
08:48PM 33.5651 -81.1983 202° Southwest 365 420 38,100  Climbing FlightAware ADS-B (KCDN)
08:48PM 33.4948 -81.2329 202° Southwest 364 419 38,000 -80 Descending FlightAware ADS-B (KCDN)
08:49PM 33.4471 -81.2563 202° Southwest 362 417 38,000  Level FlightAware ADS-B (KCDN)
08:50PM 33.3790 -81.2897 202° Southwest 362 417 38,000  Level FlightAware ADS-B (KCDN)
08:51PM 33.3028 -81.3292 202° Southwest 374 430 38,000  Level Jacksonville Center
08:52PM 33.2117 -81.3756 203° Southwest 374 430 38,000  Level Jacksonville Center
08:53PM 33.1183 -81.4219 203° Southwest 374 430 38,000  Level Jacksonville Center
08:54PM 33.0247 -81.4656 201° Southwest 374 430 38,000  Level Jacksonville Center
08:55PM 32.9314 -81.5117 203° Southwest 374 430 38,000  Level Jacksonville Center
08:56PM 32.8358 -81.5575 202° Southwest 374 430 38,000  Level Jacksonville Center
08:57PM 32.7425 -81.6033 202° Southwest 374 430 38,000  Level Jacksonville Center
08:58PM 32.6572 -81.6442 202° Southwest 374 430 38,000  Level Jacksonville Center
08:59PM 32.5533 -81.6922 201° Southwest 374 430 38,000  Level Jacksonville Center
09:00PM 32.4578 -81.7378 202° Southwest 374 430 38,000  Level Jacksonville Center
09:01PM 32.3744 -81.7783 202° Southwest 374 430 38,000  Level Jacksonville Center
09:02PM 32.2622 -81.8189 197° South 379 436 38,000  Level Jacksonville Center
09:03PM 32.1622 -81.8372 189° South 399 459 38,000  Level Jacksonville Center
09:04PM 32.0433 -81.8656 191° South 399 459 38,000  Level Jacksonville Center
09:05PM 31.9350 -81.8864 189° South 404 465 38,000  Level Jacksonville Center
09:06PM 31.8369 -81.9047 189° South 404 465 38,000  Level Jacksonville Center
09:07PM 31.7181 -81.9303 190° South 409 471 38,000  Level Jacksonville Center
09:08PM 31.6056 -81.9533 190° South 406 467 38,000  Level Jacksonville Center
09:09PM 31.5181 -81.9908 200° South 393 452 38,000  Level Jacksonville Center
09:10PM 31.4203 -82.0431 205° Southwest 382 440 38,000  Level Jacksonville Center
09:11PM 31.3100 -82.0608 188° South 388 447 38,000  Level Jacksonville Center
09:12PM 31.1953 -82.0814 189° South 405 466 38,000  Level Jacksonville Center
09:13PM 31.0806 -82.0994 188° South 416 479 38,000  Level Jacksonville Center
09:18PM 30.4416 -82.2099 189° South 415 478 38,000 -80 Level FlightAware ADS-B
09:19PM 30.3657 -82.2232 189° South 411 473 37,500 -876 Descending FlightAware ADS-B
09:20PM 30.2732 -82.2392 188° South 402 463 36,700 -900 Descending FlightAware ADS-B
09:20PM 30.2164 -82.2489 189° South 394 453 36,300 -1,268 Descending FlightAware ADS-B
09:21PM 30.1458 -82.2614 189° South 389 448 35,200 -1,714 Descending FlightAware ADS-B
09:21PM 30.0936 -82.2708 189° South 398 458 34,300 -1,714 Descending FlightAware ADS-B
09:22PM 30.0197 -82.2836 189° South 394 453 33,200 -1,714 Descending FlightAware ADS-B
09:22PM 29.9653 -82.2930 189° South 400 460 32,300 -1,739 Descending FlightAware ADS-B
09:23PM 29.8920 -82.3056 189° South 402 463 31,200 -1,714 Descending FlightAware ADS-B
09:24PM 29.8370 -82.3152 189° South 404 465 30,300 -1,826 Descending FlightAware ADS-B
09:24PM 29.7659 -82.3274 188° South 394 453 29,100 -1,800 Descending FlightAware ADS-B
09:25PM 29.7099 -82.3369 188° South 388 447 28,200 -1,833 Descending FlightAware ADS-B
09:25PM 29.6382 -82.3492 189° South 386 444 26,900 -1,543 Descending FlightAware ADS-B
09:26PM 29.5855 -82.3570 181° South 398 458 26,400 -1,043 Descending FlightAware ADS-B
09:27PM 29.5103 -82.3492 174° South 403 464 25,700 -975 Descending FlightAware ADS-B
09:27PM 29.4349 -82.3400 174° South 397 457 25,100 -649 Descending FlightAware ADS-B
09:28PM 29.3743 -82.3330 174° South 401 461 24,900 -1,909 Descending FlightAware ADS-B
09:28PM 29.3144 -82.3262 174° South 411 473 23,000 -3,000 Descending FlightAware ADS-B
09:29PM 29.2505 -82.3183 174° South 406 467 21,600 -2,348 Descending FlightAware ADS-B
09:30PM 29.1841 -82.3102 174° South 396 456 20,300 -2,217 Descending FlightAware ADS-B
09:30PM 29.0834 -82.2982 174° South 387 445 18,200 -2,188 Descending FlightAware ADS-B
09:31PM 29.0104 -82.2896 174° South 386 444 16,800 -2,025 Descending FlightAware ADS-B
09:32PM 28.9397 -82.2811 174° South 386 444 15,500 -2,197 Descending FlightAware ADS-B
09:32PM 28.8839 -82.2746 174° South 384 442 14,200 -1,080 Descending FlightAware ADS-B
09:34PM 28.6851 -82.2568 180° South 356 410 12,800 -726 Descending FlightAware ADS-B
09:35PM 28.6245 -82.2559 179° South 328 377 12,300 -1,304 Descending FlightAware ADS-B
09:35PM 28.5790 -82.2550 180° South 309 356 11,300 -2,100 Descending FlightAware ADS-B
09:36PM 28.5443 -82.2725 229° Southwest 277 319 10,200 -2,108 Descending FlightAware ADS-B
09:36PM 28.5389 -82.2816 242° Southwest 269 310 10,000 -563 Descending FlightAware ADS-B
09:36PM 28.5285 -82.3133 252° West 270 311 9,900  Descending FlightAware ADS-B
09:37PM 28.5209 -82.3392 252° West 268 308 10,000 -551 Climbing FlightAware ADS-B
09:40PM 28.4402 -82.5509 243° Southwest 267 307 8,200 -899 Descending FlightAware ADS-B
09:41PM 28.4167 -82.6167 243° Southwest 269 310 6,600 -1,488 Descending Tampa TRACON
09:42PM 28.3833 -82.7000 246° West 266 306 5,200 -789 Descending Tampa TRACON
09:42PM 28.3333 -82.7167 196° South 222 255 5,100 -368 Descending Tampa TRACON
09:43PM 28.2667 -82.7333 192° South 213 245 4,500 -500 Descending Tampa TRACON
09:44PM 28.2167 -82.7333 180° South 185 213 4,100 -200 Descending Tampa TRACON
09:45PM 28.1667 -82.7333 180° South 177 204 4,100 -105 Level Tampa TRACON
09:46PM 28.1167 -82.7333 180° South 176 203 3,900 -579 Descending Tampa TRACON
09:47PM 28.0833 -82.7167 156° South 164 189 3,000 -850 Descending Tampa TRACON
09:48PM 28.0333 -82.7167 180° South 162 186 2,200 -800 Descending Tampa TRACON
09:49PM 28.0000 -82.7000 156° South 134 154 1,400 -714 Descending Tampa TRACON
09:50PM 27.9500 -82.7000 180° South 128 147 700 -636 Descending Tampa TRACON
09:52PM 27.9100 -82.6875 172° South  Level Estimated